sensor_id;sensor_type;location;lat;lon;timestamp;P1;durP1;ratioP1;P2;durP2;ratioP2
1785;SDS011;890;48.158;11.540;2023-10-19T00:00:56;451.85;;;407.73;;
1785;SDS011;890;48.158;11.540;2023-10-19T00:03:24;505.87;;;460.80;;
1785;SDS011;890;48.158;11.540;2023-10-19T00:05:50;444.80;;;400.67;;
1785;SDS011;890;48.158;11.540;2023-10-19T00:08:16;371.43;;;336.07;;
1785;SDS011;890;48.158;11.540;2023-10-19T00:10:49;366.23;;;264.90;;
1785;SDS011;890;48.158;11.540;2023-10-19T00:13:35;378.55;;;291.52;;
1785;SDS011;890;48.158;11.540;2023-10-19T00:16:01;393.90;;;350.83;;
1785;SDS011;890;48.158;11.540;2023-10-19T00:18:32;392.75;;;346.55;;
1785;SDS011;890;48.158;11.540;2023-10-19T00:20:59;409.00;;;365.15;;
1785;SDS011;890;48.158;11.540;2023-10-19T00:23:36;514.65;;;469.52;;
1785;SDS011;890;48.158;11.540;2023-10-19T00:26:04;578.63;;;527.95;;
1785;SDS011;890;48.158;11.540;2023-10-19T00:28:49;200.27;;;173.05;;
1785;SDS011;890;48.158;11.540;2023-10-19T00:31:18;447.67;;;400.65;;
1785;SDS011;890;48.158;11.540;2023-10-19T00:33:47;393.05;;;337.63;;
1785;SDS011;890;48.158;11.540;2023-10-19T00:36:16;172.60;;;83.40;;
1785;SDS011;890;48.158;11.540;2023-10-19T00:38:45;161.50;;;73.22;;
1785;SDS011;890;48.158;11.540;2023-10-19T00:41:15;576.67;;;526.60;;
1785;SDS011;890;48.158;11.540;2023-10-19T00:43:47;377.25;;;319.17;;
1785;SDS011;890;48.158;11.540;2023-10-19T00:46:23;546.30;;;500.30;;
1785;SDS011;890;48.158;11.540;2023-10-19T00:48:55;596.33;;;545.70;;
1785;SDS011;890;48.158;11.540;2023-10-19T00:51:29;563.15;;;509.48;;
1785;SDS011;890;48.158;11.540;2023-10-19T00:54:28;202.40;;;146.73;;
1785;SDS011;890;48.158;11.540;2023-10-19T00:56:58;435.25;;;377.52;;
1785;SDS011;890;48.158;11.540;2023-10-19T00:59:29;376.85;;;314.48;;
1785;SDS011;890;48.158;11.540;2023-10-19T01:01:56;539.65;;;488.23;;
1785;SDS011;890;48.158;11.540;2023-10-19T01:04:40;396.10;;;288.52;;
1785;SDS011;890;48.158;11.540;2023-10-19T01:07:07;754.57;;;687.80;;
1785;SDS011;890;48.158;11.540;2023-10-19T01:09:40;809.80;;;743.70;;
1785;SDS011;890;48.158;11.540;2023-10-19T01:12:09;822.43;;;756.13;;
1785;SDS011;890;48.158;11.540;2023-10-19T01:17:35;418.88;;;349.85;;
1785;SDS011;890;48.158;11.540;2023-10-19T01:20:15;619.50;;;567.90;;
1785;SDS011;890;48.158;11.540;2023-10-19T01:22:47;447.98;;;393.38;;
1785;SDS011;890;48.158;11.540;2023-10-19T01:28:10;613.80;;;559.47;;
1785;SDS011;890;48.158;11.540;2023-10-19T01:30:41;559.47;;;511.08;;
1785;SDS011;890;48.158;11.540;2023-10-19T01:33:07;391.23;;;326.10;;
1785;SDS011;890;48.158;11.540;2023-10-19T01:35:38;386.73;;;304.75;;
1785;SDS011;890;48.158;11.540;2023-10-19T01:38:23;388.52;;;331.85;;
1785;SDS011;890;48.158;11.540;2023-10-19T01:40:48;394.70;;;336.23;;
1785;SDS011;890;48.158;11.540;2023-10-19T01:43:16;601.42;;;553.90;;
1785;SDS011;890;48.158;11.540;2023-10-19T01:45:55;419.38;;;363.02;;
1785;SDS011;890;48.158;11.540;2023-10-19T01:48:21;387.98;;;323.05;;
1785;SDS011;890;48.158;11.540;2023-10-19T01:51:02;412.15;;;368.83;;
1785;SDS011;890;48.158;11.540;2023-10-19T01:53:32;394.10;;;331.80;;
1785;SDS011;890;48.158;11.540;2023-10-19T01:56:00;402.65;;;341.23;;
1785;SDS011;890;48.158;11.540;2023-10-19T01:58:26;423.87;;;372.77;;
1785;SDS011;890;48.158;11.540;2023-10-19T02:00:52;530.13;;;483.80;;
1785;SDS011;890;48.158;11.540;2023-10-19T02:03:25;508.15;;;461.80;;
1785;SDS011;890;48.158;11.540;2023-10-19T02:05:59;513.90;;;465.50;;
1785;SDS011;890;48.158;11.540;2023-10-19T02:08:35;636.58;;;587.63;;
1785;SDS011;890;48.158;11.540;2023-10-19T02:11:04;505.33;;;459.05;;
1785;SDS011;890;48.158;11.540;2023-10-19T02:13:43;592.92;;;544.45;;
1785;SDS011;890;48.158;11.540;2023-10-19T02:16:11;691.78;;;639.72;;
1785;SDS011;890;48.158;11.540;2023-10-19T02:18:48;529.28;;;482.60;;
1785;SDS011;890;48.158;11.540;2023-10-19T02:21:15;660.63;;;609.65;;
1785;SDS011;890;48.158;11.540;2023-10-19T02:23:46;678.00;;;626.30;;
1785;SDS011;890;48.158;11.540;2023-10-19T02:26:16;389.23;;;332.50;;
1785;SDS011;890;48.158;11.540;2023-10-19T02:28:44;613.45;;;564.60;;
1785;SDS011;890;48.158;11.540;2023-10-19T02:31:15;633.05;;;583.17;;
1785;SDS011;890;48.158;11.540;2023-10-19T02:33:46;696.50;;;644.22;;
1785;SDS011;890;48.158;11.540;2023-10-19T02:36:15;670.95;;;620.13;;
1785;SDS011;890;48.158;11.540;2023-10-19T02:38:44;653.73;;;603.67;;
1785;SDS011;890;48.158;11.540;2023-10-19T02:41:16;704.75;;;651.63;;
1785;SDS011;890;48.158;11.540;2023-10-19T02:43:43;681.03;;;630.05;;
1785;SDS011;890;48.158;11.540;2023-10-19T02:46:31;718.97;;;666.38;;
1785;SDS011;890;48.158;11.540;2023-10-19T02:49:00;768.95;;;713.33;;
1785;SDS011;890;48.158;11.540;2023-10-19T02:51:28;664.35;;;612.28;;
1785;SDS011;890;48.158;11.540;2023-10-19T02:53:54;569.95;;;521.92;;
1785;SDS011;890;48.158;11.540;2023-10-19T02:56:20;576.87;;;527.80;;
1785;SDS011;890;48.158;11.540;2023-10-19T02:58:48;680.55;;;626.95;;
1785;SDS011;890;48.158;11.540;2023-10-19T03:01:15;744.80;;;692.00;;
1785;SDS011;890;48.158;11.540;2023-10-19T03:03:47;535.88;;;489.00;;
1785;SDS011;890;48.158;11.540;2023-10-19T03:06:17;664.40;;;613.58;;
1785;SDS011;890;48.158;11.540;2023-10-19T03:08:44;581.28;;;533.15;;
1785;SDS011;890;48.158;11.540;2023-10-19T03:11:11;687.15;;;634.72;;
1785;SDS011;890;48.158;11.540;2023-10-19T03:13:38;684.40;;;631.50;;
1785;SDS011;890;48.158;11.540;2023-10-19T03:16:06;647.53;;;597.45;;
1785;SDS011;890;48.158;11.540;2023-10-19T03:18:32;428.60;;;384.35;;
1785;SDS011;890;48.158;11.540;2023-10-19T03:21:00;688.40;;;635.65;;
1785;SDS011;890;48.158;11.540;2023-10-19T03:23:27;694.50;;;641.25;;
1785;SDS011;890;48.158;11.540;2023-10-19T03:25:56;318.85;;;258.10;;
1785;SDS011;890;48.158;11.540;2023-10-19T03:28:41;338.05;;;270.00;;
1785;SDS011;890;48.158;11.540;2023-10-19T03:31:08;630.13;;;580.17;;
1785;SDS011;890;48.158;11.540;2023-10-19T03:33:38;681.92;;;630.90;;
1785;SDS011;890;48.158;11.540;2023-10-19T03:36:05;649.28;;;598.75;;
1785;SDS011;890;48.158;11.540;2023-10-19T03:38:37;503.25;;;457.27;;
1785;SDS011;890;48.158;11.540;2023-10-19T03:41:05;562.63;;;515.55;;
1785;SDS011;890;48.158;11.540;2023-10-19T03:43:33;509.58;;;463.65;;
1785;SDS011;890;48.158;11.540;2023-10-19T03:46:01;547.88;;;501.58;;
1785;SDS011;890;48.158;11.540;2023-10-19T03:48:31;519.78;;;473.25;;
1785;SDS011;890;48.158;11.540;2023-10-19T03:51:03;469.00;;;424.02;;
1785;SDS011;890;48.158;11.540;2023-10-19T03:53:29;422.55;;;378.98;;
1785;SDS011;890;48.158;11.540;2023-10-19T03:55:56;460.27;;;415.77;;
1785;SDS011;890;48.158;11.540;2023-10-19T03:58:22;461.42;;;416.85;;
1785;SDS011;890;48.158;11.540;2023-10-19T04:00:48;525.77;;;478.23;;
1785;SDS011;890;48.158;11.540;2023-10-19T04:03:14;485.05;;;440.77;;
1785;SDS011;890;48.158;11.540;2023-10-19T04:05:42;485.52;;;440.77;;
1785;SDS011;890;48.158;11.540;2023-10-19T04:08:12;522.08;;;475.95;;
1785;SDS011;890;48.158;11.540;2023-10-19T04:10:39;489.23;;;444.65;;
1785;SDS011;890;48.158;11.540;2023-10-19T04:13:10;569.55;;;522.53;;
1785;SDS011;890;48.158;11.540;2023-10-19T04:15:36;500.85;;;455.52;;
1785;SDS011;890;48.158;11.540;2023-10-19T04:18:05;671.23;;;620.50;;
1785;SDS011;890;48.158;11.540;2023-10-19T04:20:34;507.10;;;460.50;;
1785;SDS011;890;48.158;11.540;2023-10-19T04:23:17;444.20;;;400.00;;
1785;SDS011;890;48.158;11.540;2023-10-19T04:25:45;669.63;;;619.63;;
1785;SDS011;890;48.158;11.540;2023-10-19T04:28:11;507.67;;;461.80;;
1785;SDS011;890;48.158;11.540;2023-10-19T04:30:38;610.33;;;562.03;;
1785;SDS011;890;48.158;11.540;2023-10-19T04:33:04;553.30;;;506.60;;
1785;SDS011;890;48.158;11.540;2023-10-19T04:35:35;682.67;;;631.70;;
1785;SDS011;890;48.158;11.540;2023-10-19T04:38:03;515.28;;;470.17;;
1785;SDS011;890;48.158;11.540;2023-10-19T04:40:32;555.05;;;508.85;;
1785;SDS011;890;48.158;11.540;2023-10-19T04:42:58;598.72;;;551.00;;
1785;SDS011;890;48.158;11.540;2023-10-19T04:45:27;542.33;;;495.88;;
1785;SDS011;890;48.158;11.540;2023-10-19T04:47:54;551.80;;;505.63;;
1785;SDS011;890;48.158;11.540;2023-10-19T04:50:20;485.37;;;439.63;;
1785;SDS011;890;48.158;11.540;2023-10-19T04:52:46;487.33;;;442.23;;
1785;SDS011;890;48.158;11.540;2023-10-19T04:55:12;508.00;;;462.92;;
1785;SDS011;890;48.158;11.540;2023-10-19T04:57:38;523.40;;;476.53;;
1785;SDS011;890;48.158;11.540;2023-10-19T05:00:04;683.00;;;630.83;;
1785;SDS011;890;48.158;11.540;2023-10-19T05:02:30;466.92;;;422.23;;
1785;SDS011;890;48.158;11.540;2023-10-19T05:04:55;489.53;;;444.23;;
1785;SDS011;890;48.158;11.540;2023-10-19T05:07:21;498.17;;;453.07;;
1785;SDS011;890;48.158;11.540;2023-10-19T05:09:47;486.33;;;441.17;;
1785;SDS011;890;48.158;11.540;2023-10-19T05:12:13;508.27;;;461.83;;
1785;SDS011;890;48.158;11.540;2023-10-19T05:14:40;508.25;;;462.30;;
1785;SDS011;890;48.158;11.540;2023-10-19T05:17:06;512.38;;;466.88;;
1785;SDS011;890;48.158;11.540;2023-10-19T05:19:34;600.53;;;553.35;;
1785;SDS011;890;48.158;11.540;2023-10-19T05:22:01;505.92;;;460.27;;
1785;SDS011;890;48.158;11.540;2023-10-19T05:24:28;457.63;;;413.63;;
1785;SDS011;890;48.158;11.540;2023-10-19T05:26:54;530.58;;;484.75;;
1785;SDS011;890;48.158;11.540;2023-10-19T05:29:20;584.93;;;537.73;;
1785;SDS011;890;48.158;11.540;2023-10-19T05:31:47;593.10;;;546.33;;
1785;SDS011;890;48.158;11.540;2023-10-19T05:34:19;492.75;;;447.65;;
1785;SDS011;890;48.158;11.540;2023-10-19T05:36:45;502.52;;;457.00;;
1785;SDS011;890;48.158;11.540;2023-10-19T05:39:16;502.10;;;456.25;;
1785;SDS011;890;48.158;11.540;2023-10-19T05:41:43;513.95;;;467.92;;
1785;SDS011;890;48.158;11.540;2023-10-19T05:44:14;563.83;;;517.60;;
1785;SDS011;890;48.158;11.540;2023-10-19T05:46:40;490.27;;;445.93;;
1785;SDS011;890;48.158;11.540;2023-10-19T05:49:06;526.77;;;481.43;;
1785;SDS011;890;48.158;11.540;2023-10-19T05:51:31;622.63;;;574.83;;
1785;SDS011;890;48.158;11.540;2023-10-19T05:53:57;634.97;;;587.90;;
1785;SDS011;890;48.158;11.540;2023-10-19T05:56:29;482.23;;;435.80;;
1785;SDS011;890;48.158;11.540;2023-10-19T05:58:56;529.05;;;483.33;;
1785;SDS011;890;48.158;11.540;2023-10-19T06:01:22;501.70;;;455.42;;
1785;SDS011;890;48.158;11.540;2023-10-19T06:03:49;480.52;;;436.08;;
1785;SDS011;890;48.158;11.540;2023-10-19T06:06:15;580.83;;;534.30;;
1785;SDS011;890;48.158;11.540;2023-10-19T06:08:41;570.10;;;523.70;;
1785;SDS011;890;48.158;11.540;2023-10-19T06:11:06;528.83;;;483.40;;
1785;SDS011;890;48.158;11.540;2023-10-19T06:13:32;476.73;;;432.27;;
1785;SDS011;890;48.158;11.540;2023-10-19T06:15:58;429.43;;;385.63;;
1785;SDS011;890;48.158;11.540;2023-10-19T06:18:23;541.77;;;496.40;;
1785;SDS011;890;48.158;11.540;2023-10-19T06:20:49;486.20;;;441.77;;
1785;SDS011;890;48.158;11.540;2023-10-19T06:23:16;485.30;;;440.65;;
1785;SDS011;890;48.158;11.540;2023-10-19T06:25:43;449.00;;;405.55;;
1785;SDS011;890;48.158;11.540;2023-10-19T06:28:09;464.88;;;420.75;;
1785;SDS011;890;48.158;11.540;2023-10-19T06:30:36;460.85;;;416.48;;
1785;SDS011;890;48.158;11.540;2023-10-19T06:33:02;516.00;;;470.50;;
1785;SDS011;890;48.158;11.540;2023-10-19T06:35:28;538.57;;;492.77;;
1785;SDS011;890;48.158;11.540;2023-10-19T06:37:57;521.40;;;476.23;;
1785;SDS011;890;48.158;11.540;2023-10-19T06:40:28;521.90;;;476.98;;
1785;SDS011;890;48.158;11.540;2023-10-19T06:42:54;520.63;;;475.13;;
1785;SDS011;890;48.158;11.540;2023-10-19T06:45:21;515.20;;;470.58;;
1785;SDS011;890;48.158;11.540;2023-10-19T06:47:47;530.87;;;485.60;;
1785;SDS011;890;48.158;11.540;2023-10-19T06:50:15;581.08;;;535.15;;
1785;SDS011;890;48.158;11.540;2023-10-19T06:52:43;719.97;;;670.30;;
1785;SDS011;890;48.158;11.540;2023-10-19T06:55:09;655.42;;;607.45;;
1785;SDS011;890;48.158;11.540;2023-10-19T06:57:41;647.28;;;598.83;;
1785;SDS011;890;48.158;11.540;2023-10-19T07:00:11;638.15;;;590.67;;
1785;SDS011;890;48.158;11.540;2023-10-19T07:02:52;623.45;;;575.90;;
1785;SDS011;890;48.158;11.540;2023-10-19T07:05:20;619.08;;;572.55;;
1785;SDS011;890;48.158;11.540;2023-10-19T07:07:47;625.78;;;578.55;;
1785;SDS011;890;48.158;11.540;2023-10-19T07:10:14;636.90;;;588.88;;
1785;SDS011;890;48.158;11.540;2023-10-19T07:13:13;723.13;;;672.80;;
1785;SDS011;890;48.158;11.540;2023-10-19T07:15:31;706.78;;;658.08;;
1785;SDS011;890;48.158;11.540;2023-10-19T07:17:57;726.23;;;676.33;;
1785;SDS011;890;48.158;11.540;2023-10-19T07:20:23;691.00;;;642.03;;
1785;SDS011;890;48.158;11.540;2023-10-19T07:22:52;723.00;;;673.65;;
1785;SDS011;890;48.158;11.540;2023-10-19T07:25:18;705.70;;;656.63;;
1785;SDS011;890;48.158;11.540;2023-10-19T07:27:49;715.35;;;666.38;;
1785;SDS011;890;48.158;11.540;2023-10-19T07:30:15;709.90;;;661.08;;
1785;SDS011;890;48.158;11.540;2023-10-19T07:32:51;717.38;;;667.75;;
1785;SDS011;890;48.158;11.540;2023-10-19T07:35:23;766.17;;;715.65;;
1785;SDS011;890;48.158;11.540;2023-10-19T07:37:51;760.08;;;709.63;;
1785;SDS011;890;48.158;11.540;2023-10-19T07:40:17;776.03;;;723.85;;
1785;SDS011;890;48.158;11.540;2023-10-19T07:42:43;781.33;;;730.25;;
1785;SDS011;890;48.158;11.540;2023-10-19T07:45:09;800.88;;;749.58;;
1785;SDS011;890;48.158;11.540;2023-10-19T07:47:38;785.08;;;733.90;;
1785;SDS011;890;48.158;11.540;2023-10-19T07:50:11;788.40;;;736.72;;
1785;SDS011;890;48.158;11.540;2023-10-19T07:52:41;813.92;;;761.28;;
1785;SDS011;890;48.158;11.540;2023-10-19T07:55:14;803.05;;;751.15;;
1785;SDS011;890;48.158;11.540;2023-10-19T07:57:48;807.35;;;755.58;;
1785;SDS011;890;48.158;11.540;2023-10-19T08:00:15;834.25;;;781.13;;
1785;SDS011;890;48.158;11.540;2023-10-19T08:02:42;823.25;;;770.35;;
1785;SDS011;890;48.158;11.540;2023-10-19T08:05:11;809.08;;;756.97;;
1785;SDS011;890;48.158;11.540;2023-10-19T08:07:43;821.30;;;768.65;;
1785;SDS011;890;48.158;11.540;2023-10-19T08:10:12;826.27;;;773.47;;
1785;SDS011;890;48.158;11.540;2023-10-19T08:12:40;823.43;;;770.13;;
1785;SDS011;890;48.158;11.540;2023-10-19T08:15:10;828.75;;;776.03;;
1785;SDS011;890;48.158;11.540;2023-10-19T08:17:38;821.05;;;768.70;;
1785;SDS011;890;48.158;11.540;2023-10-19T08:20:05;828.60;;;776.40;;
1785;SDS011;890;48.158;11.540;2023-10-19T08:22:34;830.85;;;778.08;;
1785;SDS011;890;48.158;11.540;2023-10-19T08:25:03;815.22;;;763.47;;
1785;SDS011;890;48.158;11.540;2023-10-19T08:27:30;859.67;;;805.50;;
1785;SDS011;890;48.158;11.540;2023-10-19T08:29:58;919.50;;;863.20;;
1785;SDS011;890;48.158;11.540;2023-10-19T08:32:23;881.00;;;826.53;;
1785;SDS011;890;48.158;11.540;2023-10-19T08:34:49;878.83;;;824.63;;
1785;SDS011;890;48.158;11.540;2023-10-19T08:37:15;897.87;;;843.40;;
1785;SDS011;890;48.158;11.540;2023-10-19T08:39:40;915.53;;;859.47;;
1785;SDS011;890;48.158;11.540;2023-10-19T08:42:08;892.50;;;837.03;;
1785;SDS011;890;48.158;11.540;2023-10-19T08:44:35;865.45;;;811.92;;
1785;SDS011;890;48.158;11.540;2023-10-19T08:47:01;919.57;;;862.70;;
1785;SDS011;890;48.158;11.540;2023-10-19T08:49:27;907.37;;;852.10;;
1785;SDS011;890;48.158;11.540;2023-10-19T08:51:53;939.77;;;882.70;;
1785;SDS011;890;48.158;11.540;2023-10-19T08:54:20;923.53;;;867.63;;
1785;SDS011;890;48.158;11.540;2023-10-19T08:56:46;913.37;;;857.93;;
1785;SDS011;890;48.158;11.540;2023-10-19T08:59:14;933.30;;;876.30;;
1785;SDS011;890;48.158;11.540;2023-10-19T09:01:41;923.33;;;867.67;;
1785;SDS011;890;48.158;11.540;2023-10-19T09:04:12;900.70;;;845.80;;
1785;SDS011;890;48.158;11.540;2023-10-19T09:06:39;876.37;;;822.17;;
1785;SDS011;890;48.158;11.540;2023-10-19T09:09:08;911.23;;;856.07;;
1785;SDS011;890;48.158;11.540;2023-10-19T09:11:42;920.47;;;863.93;;
1785;SDS011;890;48.158;11.540;2023-10-19T09:14:08;936.87;;;880.83;;
1785;SDS011;890;48.158;11.540;2023-10-19T09:16:37;921.30;;;865.43;;
1785;SDS011;890;48.158;11.540;2023-10-19T09:19:03;928.57;;;872.90;;
1785;SDS011;890;48.158;11.540;2023-10-19T09:21:30;925.20;;;869.50;;
1785;SDS011;890;48.158;11.540;2023-10-19T09:23:58;974.77;;;915.67;;
1785;SDS011;890;48.158;11.540;2023-10-19T09:26:23;975.70;;;917.13;;
1785;SDS011;890;48.158;11.540;2023-10-19T09:28:50;938.97;;;882.10;;
1785;SDS011;890;48.158;11.540;2023-10-19T09:31:18;941.70;;;884.33;;
1785;SDS011;890;48.158;11.540;2023-10-19T09:33:46;946.33;;;889.73;;
1785;SDS011;890;48.158;11.540;2023-10-19T09:36:14;948.50;;;890.73;;
1785;SDS011;890;48.158;11.540;2023-10-19T09:41:08;917.93;;;862.73;;
1785;SDS011;890;48.158;11.540;2023-10-19T09:43:38;926.80;;;870.93;;
1785;SDS011;890;48.158;11.540;2023-10-19T09:46:16;942.97;;;886.67;;
1785;SDS011;890;48.158;11.540;2023-10-19T09:48:47;953.27;;;895.47;;
1785;SDS011;890;48.158;11.540;2023-10-19T09:51:14;960.17;;;902.43;;
1785;SDS011;890;48.158;11.540;2023-10-19T09:53:41;979.47;;;920.47;;
1785;SDS011;890;48.158;11.540;2023-10-19T09:56:15;1000.67;;;940.70;;
1785;SDS011;890;48.158;11.540;2023-10-19T09:58:47;1009.13;;;947.60;;
1785;SDS011;890;48.158;11.540;2023-10-19T10:01:16;1003.43;;;944.00;;
1785;SDS011;890;48.158;11.540;2023-10-19T10:06:11;1032.23;;;971.70;;
1785;SDS011;890;48.158;11.540;2023-10-19T10:08:39;1055.03;;;992.20;;
1785;SDS011;890;48.158;11.540;2023-10-19T10:11:28;1044.47;;;982.90;;
1785;SDS011;890;48.158;11.540;2023-10-19T10:13:57;1053.60;;;991.53;;
1785;SDS011;890;48.158;11.540;2023-10-19T10:16:26;1044.87;;;983.07;;
1785;SDS011;890;48.158;11.540;2023-10-19T10:18:54;1042.87;;;980.90;;
1785;SDS011;890;48.158;11.540;2023-10-19T10:21:24;1043.73;;;982.33;;
1785;SDS011;890;48.158;11.540;2023-10-19T10:23:55;1033.13;;;972.07;;
1785;SDS011;890;48.158;11.540;2023-10-19T10:26:29;1037.57;;;975.77;;
1785;SDS011;890;48.158;11.540;2023-10-19T10:29:17;1036.60;;;975.73;;
1785;SDS011;890;48.158;11.540;2023-10-19T10:31:53;1024.27;;;963.20;;
1785;SDS011;890;48.158;11.540;2023-10-19T10:37:06;1014.80;;;954.50;;
1785;SDS011;890;48.158;11.540;2023-10-19T10:39:36;1015.97;;;955.30;;
1785;SDS011;890;48.158;11.540;2023-10-19T10:42:06;1016.07;;;956.00;;
1785;SDS011;890;48.158;11.540;2023-10-19T10:44:47;1020.37;;;959.83;;
1785;SDS011;890;48.158;11.540;2023-10-19T10:52:28;1009.27;;;949.73;;
1785;SDS011;890;48.158;11.540;2023-10-19T10:54:55;1016.07;;;956.17;;
1785;SDS011;890;48.158;11.540;2023-10-19T10:57:21;1013.30;;;953.63;;
1785;SDS011;890;48.158;11.540;2023-10-19T11:00:00;1008.83;;;948.47;;
1785;SDS011;890;48.158;11.540;2023-10-19T11:02:26;1011.17;;;950.60;;
1785;SDS011;890;48.158;11.540;2023-10-19T11:04:51;1004.80;;;945.00;;
1785;SDS011;890;48.158;11.540;2023-10-19T11:07:17;1026.70;;;965.70;;
1785;SDS011;890;48.158;11.540;2023-10-19T11:09:45;1038.00;;;977.03;;
1785;SDS011;890;48.158;11.540;2023-10-19T11:12:12;1048.20;;;985.73;;
1785;SDS011;890;48.158;11.540;2023-10-19T11:14:51;1041.67;;;980.10;;
1785;SDS011;890;48.158;11.540;2023-10-19T11:17:20;1040.33;;;978.87;;
1785;SDS011;890;48.158;11.540;2023-10-19T11:19:53;1049.90;;;987.70;;
1785;SDS011;890;48.158;11.540;2023-10-19T11:22:21;1050.57;;;988.33;;
1785;SDS011;890;48.158;11.540;2023-10-19T11:24:47;1057.50;;;994.27;;
1785;SDS011;890;48.158;11.540;2023-10-19T11:27:13;1043.07;;;981.47;;
1785;SDS011;890;48.158;11.540;2023-10-19T11:29:57;1044.80;;;983.30;;
1785;SDS011;890;48.158;11.540;2023-10-19T11:32:24;1037.97;;;977.07;;
1785;SDS011;890;48.158;11.540;2023-10-19T11:34:54;1028.20;;;967.50;;
1785;SDS011;890;48.158;11.540;2023-10-19T11:37:20;1029.53;;;969.13;;
1785;SDS011;890;48.158;11.540;2023-10-19T11:39:46;1022.40;;;962.43;;
1785;SDS011;890;48.158;11.540;2023-10-19T11:42:12;1014.57;;;954.77;;
1785;SDS011;890;48.158;11.540;2023-10-19T11:44:38;1025.70;;;963.73;;
1785;SDS011;890;48.158;11.540;2023-10-19T11:47:04;1021.73;;;961.17;;
1785;SDS011;890;48.158;11.540;2023-10-19T11:49:30;1022.73;;;962.73;;
1785;SDS011;890;48.158;11.540;2023-10-19T11:51:56;1030.13;;;968.93;;
1785;SDS011;890;48.158;11.540;2023-10-19T11:54:22;1023.20;;;962.63;;
1785;SDS011;890;48.158;11.540;2023-10-19T11:56:48;1028.30;;;967.23;;
1785;SDS011;890;48.158;11.540;2023-10-19T11:59:14;1043.37;;;981.10;;
1785;SDS011;890;48.158;11.540;2023-10-19T12:01:40;1036.17;;;975.67;;
1785;SDS011;890;48.158;11.540;2023-10-19T12:04:06;1050.67;;;988.47;;
1785;SDS011;890;48.158;11.540;2023-10-19T12:06:32;1032.17;;;971.87;;
1785;SDS011;890;48.158;11.540;2023-10-19T12:08:57;1028.43;;;968.00;;
1785;SDS011;890;48.158;11.540;2023-10-19T12:11:27;1048.90;;;987.03;;
1785;SDS011;890;48.158;11.540;2023-10-19T12:13:53;1066.37;;;999.07;;
1785;SDS011;890;48.158;11.540;2023-10-19T12:16:19;1078.40;;;999.90;;
1785;SDS011;890;48.158;11.540;2023-10-19T12:18:46;1074.07;;;999.90;;
1785;SDS011;890;48.158;11.540;2023-10-19T12:21:15;1069.40;;;999.67;;
1785;SDS011;890;48.158;11.540;2023-10-19T12:23:43;1065.23;;;998.63;;
1785;SDS011;890;48.158;11.540;2023-10-19T12:26:09;1073.53;;;999.90;;
1785;SDS011;890;48.158;11.540;2023-10-19T12:28:37;1062.63;;;997.80;;
1785;SDS011;890;48.158;11.540;2023-10-19T12:31:04;1076.77;;;999.90;;
1785;SDS011;890;48.158;11.540;2023-10-19T12:33:36;1065.27;;;998.90;;
1785;SDS011;890;48.158;11.540;2023-10-19T12:36:06;1068.03;;;999.63;;
1785;SDS011;890;48.158;11.540;2023-10-19T12:38:51;1077.87;;;999.90;;
1785;SDS011;890;48.158;11.540;2023-10-19T12:41:18;1065.07;;;998.43;;
1785;SDS011;890;48.158;11.540;2023-10-19T12:43:44;1088.97;;;999.90;;
1785;SDS011;890;48.158;11.540;2023-10-19T12:46:11;1093.00;;;999.90;;
1785;SDS011;890;48.158;11.540;2023-10-19T12:48:38;1089.77;;;999.90;;
1785;SDS011;890;48.158;11.540;2023-10-19T12:51:07;1067.83;;;998.80;;
1785;SDS011;890;48.158;11.540;2023-10-19T12:53:36;1076.97;;;999.90;;
1785;SDS011;890;48.158;11.540;2023-10-19T12:56:03;1081.97;;;999.90;;
1785;SDS011;890;48.158;11.540;2023-10-19T12:58:30;1073.80;;;999.90;;
1785;SDS011;890;48.158;11.540;2023-10-19T13:00:56;1072.40;;;999.90;;
1785;SDS011;890;48.158;11.540;2023-10-19T13:03:23;1064.20;;;999.00;;
1785;SDS011;890;48.158;11.540;2023-10-19T13:05:52;1059.80;;;996.40;;
1785;SDS011;890;48.158;11.540;2023-10-19T13:08:18;1062.00;;;997.80;;
1785;SDS011;890;48.158;11.540;2023-10-19T13:10:46;1048.67;;;987.27;;
1785;SDS011;890;48.158;11.540;2023-10-19T13:13:13;1055.00;;;993.47;;
1785;SDS011;890;48.158;11.540;2023-10-19T13:15:43;1049.50;;;988.53;;
1785;SDS011;890;48.158;11.540;2023-10-19T13:18:10;1065.17;;;998.23;;
1785;SDS011;890;48.158;11.540;2023-10-19T13:20:45;1051.47;;;990.17;;
1785;SDS011;890;48.158;11.540;2023-10-19T13:23:11;1043.50;;;982.43;;
1785;SDS011;890;48.158;11.540;2023-10-19T13:25:37;1043.33;;;982.80;;
1785;SDS011;890;48.158;11.540;2023-10-19T13:28:14;1058.20;;;995.23;;
1785;SDS011;890;48.158;11.540;2023-10-19T13:30:40;1052.73;;;990.87;;
1785;SDS011;890;48.158;11.540;2023-10-19T13:33:08;1044.80;;;983.83;;
1785;SDS011;890;48.158;11.540;2023-10-19T13:35:36;1042.23;;;981.53;;
1785;SDS011;890;48.158;11.540;2023-10-19T13:38:03;1027.97;;;967.40;;
1785;SDS011;890;48.158;11.540;2023-10-19T13:40:30;1025.47;;;964.93;;
1785;SDS011;890;48.158;11.540;2023-10-19T13:42:56;1013.43;;;953.83;;
1785;SDS011;890;48.158;11.540;2023-10-19T13:45:23;899.57;;;846.00;;
1785;SDS011;890;48.158;11.540;2023-10-19T13:47:49;1032.67;;;971.50;;
1785;SDS011;890;48.158;11.540;2023-10-19T13:50:14;1029.67;;;968.87;;
1785;SDS011;890;48.158;11.540;2023-10-19T13:52:40;1028.83;;;968.03;;
1785;SDS011;890;48.158;11.540;2023-10-19T13:55:06;1032.07;;;971.37;;
1785;SDS011;890;48.158;11.540;2023-10-19T13:57:32;1026.23;;;964.87;;
1785;SDS011;890;48.158;11.540;2023-10-19T13:59:59;1021.53;;;960.47;;
1785;SDS011;890;48.158;11.540;2023-10-19T14:02:26;1017.33;;;956.17;;
1785;SDS011;890;48.158;11.540;2023-10-19T14:04:51;1014.63;;;955.17;;
1785;SDS011;890;48.158;11.540;2023-10-19T14:07:18;1004.93;;;944.73;;
1785;SDS011;890;48.158;11.540;2023-10-19T14:09:45;991.27;;;933.17;;
1785;SDS011;890;48.158;11.540;2023-10-19T14:12:10;995.60;;;936.90;;
1785;SDS011;890;48.158;11.540;2023-10-19T14:14:36;992.63;;;934.20;;
1785;SDS011;890;48.158;11.540;2023-10-19T14:17:01;1018.87;;;958.40;;
1785;SDS011;890;48.158;11.540;2023-10-19T14:19:27;1012.13;;;951.13;;
1785;SDS011;890;48.158;11.540;2023-10-19T14:21:53;976.70;;;916.73;;
1785;SDS011;890;48.158;11.540;2023-10-19T14:24:19;1008.77;;;948.90;;
1785;SDS011;890;48.158;11.540;2023-10-19T14:26:45;978.33;;;919.27;;
1785;SDS011;890;48.158;11.540;2023-10-19T14:29:12;1009.13;;;948.70;;
1785;SDS011;890;48.158;11.540;2023-10-19T14:31:38;960.33;;;902.97;;
1785;SDS011;890;48.158;11.540;2023-10-19T14:34:04;963.83;;;904.90;;
1785;SDS011;890;48.158;11.540;2023-10-19T14:36:30;983.80;;;918.43;;
1785;SDS011;890;48.158;11.540;2023-10-19T14:38:55;989.63;;;920.67;;
1785;SDS011;890;48.158;11.540;2023-10-19T14:41:21;964.70;;;901.60;;
1785;SDS011;890;48.158;11.540;2023-10-19T14:43:47;466.63;;;412.80;;
1785;SDS011;890;48.158;11.540;2023-10-19T14:46:13;137.53;;;104.13;;